Time;durP1;ratioP1;P1;durP2;ratioP2;P2;SDS_P1;SDS_P2;PMS_P1;PMS_P2;Temp;Humidity;BMP_temperature;BMP_pressure;BME280_temperature;BME280_humidity;BME280_pressure;Samples;Min_cycle;Max_cycle;Signal;HPM_P1;HPM_P2
2023/01/04 00:02:19;;;;;;;;;;;;;;;2.85;75.71;100676.44;5013437;28;19913;-95
2023/01/04 00:04:44;;;;;;;;;;;;;;;2.83;75.80;100672.91;5013190;28;20380;-94
2023/01/04 00:07:09;;;;;;;;;;;;;;;2.79;76.62;100678.84;5013319;28;19913;-95
2023/01/04 00:09:35;;;;;;;;;;;;;;;2.77;77.08;100675.31;5013133;28;19909;-94
2023/01/04 00:12:00;;;;;;;;;;;;;;;2.78;76.96;100674.47;4997045;28;19922;-94
2023/01/04 00:14:25;;;;;;;;;;;;;;;2.90;77.14;100673.97;5012937;28;20368;-94
2023/01/04 00:16:51;;;;;;;;;;;;;;;3.06;77.06;100678.84;5013170;28;19913;-94
2023/01/04 00:19:17;;;;;;;;;;;;;;;2.75;77.29;100682.19;5012280;28;19921;-94
2023/01/04 00:21:43;;;;;;;;;;;;;;;2.95;76.56;100678.50;5013729;28;19913;-95
2023/01/04 00:24:08;;;;;;;;;;;;;;;2.85;76.46;100685.13;4996721;28;19924;-94
2023/01/04 00:26:34;;;;;;;;;;;;;;;2.82;76.95;100685.03;5013206;28;19964;-95
2023/01/04 00:29:04;;;;;;;;;;;;;;;2.89;76.69;100682.63;5013180;28;19920;-94
2023/01/04 00:31:30;;;;;;;;;;;;;;;2.97;76.62;100692.47;5010544;28;20008;-93
2023/01/04 00:33:58;;;;;;;;;;;;;;;3.07;76.78;100687.56;5019055;28;19958;-96
2023/01/04 00:36:24;;;;;;;;;;;;;;;3.14;76.13;100692.13;5018157;28;19956;-94
2023/01/04 00:39:05;;;;;;;;;;;;;;;2.91;76.58;100687.06;5012837;28;19913;-94
2023/01/04 00:41:32;;;;;;;;;;;;;;;2.82;76.66;100681.56;5013339;28;19945;-96
2023/01/04 00:43:58;;;;;;;;;;;;;;;2.84;77.75;100686.00;5022114;28;19914;-95
2023/01/04 00:46:23;;;;;;;;;;;;;;;2.92;77.87;100688.84;5032469;28;19977;-92
2023/01/04 00:48:49;;;;;;;;;;;;;;;2.99;77.26;100690.78;5029697;28;19913;-92
2023/01/04 00:51:14;;;;;;;;;;;;;;;2.97;77.38;100692.47;5031863;28;19918;-93
2023/01/04 00:53:40;;;;;;;;;;;;;;;2.90;77.43;100697.44;5035593;28;19901;-95
2023/01/04 00:58:51;;;;;;;;;;;;;;;2.95;77.05;100708.88;5353481;22;19921;-94
2023/01/04 01:01:17;;;;;;;;;;;;;;;3.16;75.75;100711.31;5017032;28;20008;-93
2023/01/04 01:03:43;;;;;;;;;;;;;;;2.94;76.12;100710.63;4996751;28;19968;-93
2023/01/04 01:06:13;;;;;;;;;;;;;;;3.02;76.06;100713.47;5015054;28;20474;-94
2023/01/04 01:08:38;;;;;;;;;;;;;;;2.99;75.52;100715.97;5013329;28;19920;-94
2023/01/04 01:11:05;;;;;;;;;;;;;;;2.96;76.28;100714.16;5013812;28;20303;-93
2023/01/04 01:13:30;;;;;;;;;;;;;;;2.94;75.98;100714.97;5016258;28;19913;-95
2023/01/04 01:15:56;;;;;;;;;;;;;;;2.93;76.25;100715.78;5013239;28;19920;-96
2023/01/04 01:18:21;;;;;;;;;;;;;;;2.99;75.75;100715.97;5013106;28;20402;-96
2023/01/04 01:20:46;;;;;;;;;;;;;;;2.94;76.10;100701.94;5012413;28;19909;-95
2023/01/04 01:23:15;;;;;;;;;;;;;;;2.83;76.80;100709.41;5013517;28;19943;-96
2023/01/04 01:25:46;;;;;;;;;;;;;;;2.76;76.36;100707.41;5023639;28;19913;-96
2023/01/04 01:28:13;;;;;;;;;;;;;;;2.67;75.90;100701.09;5021965;28;19917;-96
2023/01/04 01:30:43;;;;;;;;;;;;;;;2.55;75.84;100705.88;5019272;28;19949;-96
2023/01/04 01:33:08;;;;;;;;;;;;;;;2.45;75.94;100709.88;5014278;28;19917;-96
2023/01/04 01:35:35;;;;;;;;;;;;;;;2.47;76.13;100707.31;5011906;28;19920;-96
2023/01/04 01:38:03;;;;;;;;;;;;;;;2.57;76.10;100695.50;5012852;28;20000;-95
2023/01/04 01:40:28;;;;;;;;;;;;;;;2.62;76.03;100700.03;4996887;28;19933;-96
2023/01/04 01:42:55;;;;;;;;;;;;;;;2.44;77.01;100696.78;5012661;28;20354;-96
2023/01/04 01:45:24;;;;;;;;;;;;;;;2.40;76.51;100689.72;5013430;28;19963;-96
2023/01/04 01:48:09;;;;;;;;;;;;;;;2.41;76.50;100689.78;5014015;28;19920;-96
2023/01/04 01:50:40;;;;;;;;;;;;;;;2.46;76.25;100685.59;5014395;28;19914;-96
2023/01/04 01:58:56;;;;;;;;;;;;;;;1.97;77.61;100696.91;5027429;22;19922;-95
2023/01/04 02:01:57;;;;;;;;;;;;;;;2.15;77.61;100696.69;5033736;28;19921;-95
2023/01/04 02:05:17;;;;;;;;;;;;;;;2.26;77.52;100684.94;5055442;28;19922;-95
2023/01/04 02:10:42;;;;;;;;;;;;;;;2.43;76.10;100682.91;5389361;22;19923;-94
2023/01/04 02:13:10;;;;;;;;;;;;;;;2.32;76.68;100690.34;5053608;28;19952;-95
2023/01/04 02:16:09;;;;;;;;;;;;;;;2.33;77.26;100696.44;5054044;28;19968;-96
2023/01/04 02:18:53;;;;;;;;;;;;;;;2.12;77.93;100702.66;5068474;28;19913;-96
2023/01/04 02:21:24;;;;;;;;;;;;;;;2.11;77.75;100703.50;5071123;28;19920;-96
2023/01/04 02:24:17;;;;;;;;;;;;;;;2.00;78.52;100696.16;5053612;28;19959;-96
2023/01/04 02:27:11;;;;;;;;;;;;;;;2.07;78.25;100693.81;5061980;28;19944;-96
2023/01/04 02:29:55;;;;;;;;;;;;;;;1.99;78.59;100696.97;5053802;28;19917;-96
2023/01/04 02:32:30;;;;;;;;;;;;;;;2.14;78.50;100692.31;5054631;28;19959;-96
2023/01/04 02:35:08;;;;;;;;;;;;;;;1.78;78.99;100680.66;5051787;28;19944;-96
2023/01/04 02:37:33;;;;;;;;;;;;;;;1.43;81.22;100694.94;5053319;28;20003;-95
2023/01/04 02:40:03;;;;;;;;;;;;;;;1.63;81.06;100702.63;5051684;28;19986;-95
2023/01/04 02:44:51;;;;;;;;;;;;;;;1.59;81.63;100704.19;5053620;28;20290;-96
2023/01/04 02:45:18;;;;;;;;;;;;;;;1.71;81.04;100696.84;5056065;28;19919;-95
2023/01/04 02:50:36;;;;;;;;;;;;;;;1.69;81.01;100689.84;5056529;28;19919;-95
2023/01/04 02:53:21;;;;;;;;;;;;;;;1.63;81.80;100702.63;5055120;28;19919;-95
2023/01/04 02:56:07;;;;;;;;;;;;;;;1.46;82.63;100702.84;5065786;28;19920;-96
2023/01/04 02:58:59;;;;;;;;;;;;;;;1.89;82.87;100704.44;5084145;28;19912;-96
2023/01/04 03:07:50;;;;;;;;;;;;;;;1.70;82.31;100707.19;5070482;28;19915;-96
2023/01/04 03:10:47;;;;;;;;;;;;;;;1.36;83.28;100711.13;5136414;22;19925;-95
2023/01/04 03:13:38;;;;;;;;;;;;;;;1.33;82.84;100721.41;5064939;28;19964;-94
2023/01/04 03:16:12;;;;;;;;;;;;;;;1.22;82.38;100710.59;5061941;28;19913;-96
2023/01/04 03:18:51;;;;;;;;;;;;;;;1.21;82.51;100727.91;5065603;28;19913;-96
2023/01/04 03:21:20;;;;;;;;;;;;;;;1.02;83.68;100715.00;5044617;28;19923;-96
2023/01/04 03:35:40;;;;;;;;;;;;;;;0.96;84.30;100718.25;5056217;28;19970;-96
2023/01/04 03:49:49;;;;;;;;;;;;;;;1.59;81.19;100725.00;5063450;28;19935;-95
2023/01/04 03:52:17;;;;;;;;;;;;;;;1.81;80.45;100718.00;5065275;28;19913;-96
2023/01/04 03:54:56;;;;;;;;;;;;;;;1.88;79.27;100725.22;5059825;28;19920;-96
2023/01/04 03:57:42;;;;;;;;;;;;;;;2.00;79.13;100738.66;5060542;28;19919;-94
2023/01/04 04:00:32;;;;;;;;;;;;;;;2.01;79.35;100729.13;5064126;28;19909;-96
2023/01/04 04:03:07;;;;;;;;;;;;;;;1.97;79.86;100744.63;5059949;28;19917;-92
2023/01/04 04:08:29;;;;;;;;;;;;;;;1.90;79.61;100734.84;5054147;28;20011;-92
2023/01/04 04:11:28;;;;;;;;;;;;;;;1.94;79.65;100734.13;5053991;28;19924;-92
2023/01/04 04:13:47;;;;;;;;;;;;;;;1.88;79.33;100731.28;5053399;28;20007;-90
2023/01/04 04:16:12;;;;;;;;;;;;;;;1.99;78.46;100741.22;5053828;28;19920;-90
2023/01/04 04:18:38;;;;;;;;;;;;;;;1.65;78.69;100732.16;5052837;28;19913;-92
2023/01/04 04:21:03;;;;;;;;;;;;;;;1.48;79.87;100739.31;5053701;28;19912;-91
2023/01/04 04:23:28;;;;;;;;;;;;;;;1.58;79.65;100738.84;5054942;28;19912;-92
2023/01/04 04:25:54;;;;;;;;;;;;;;;1.67;79.35;100734.00;5052122;28;19912;-91
2023/01/04 04:28:27;;;;;;;;;;;;;;;1.60;78.90;100739.78;5057667;28;19912;-96
2023/01/04 04:31:03;;;;;;;;;;;;;;;1.43;80.04;100741.75;5066658;28;19912;-96
2023/01/04 04:33:56;;;;;;;;;;;;;;;1.59;79.28;100735.41;5074001;28;19913;-96
2023/01/04 04:36:24;;;;;;;;;;;;;;;1.60;79.58;100745.88;5056467;28;20385;-92
2023/01/04 04:38:49;;;;;;;;;;;;;;;1.73;79.12;100748.94;5052175;28;19917;-92
2023/01/04 04:43:59;;;;;;;;;;;;;;;1.70;80.14;100744.53;5061047;28;20373;-96
2023/01/04 04:48:59;;;;;;;;;;;;;;;1.73;79.82;100756.75;5067400;22;19976;-96
2023/01/04 04:51:27;;;;;;;;;;;;;;;1.73;79.66;100760.25;5055613;28;19964;-94
2023/01/04 04:53:53;;;;;;;;;;;;;;;1.91;79.76;100759.16;5051667;28;20007;-92
2023/01/04 04:56:18;;;;;;;;;;;;;;;1.85;79.69;100770.22;5053526;28;20003;-93
2023/01/04 04:58:43;;;;;;;;;;;;;;;2.04;78.86;100773.50;5054127;28;19969;-94
2023/01/04 05:01:10;;;;;;;;;;;;;;;1.93;78.52;100768.81;5051700;28;19978;-93
2023/01/04 05:03:40;;;;;;;;;;;;;;;1.52;77.80;100767.22;5061651;28;19963;-96
2023/01/04 05:06:06;;;;;;;;;;;;;;;1.58;78.27;100776.16;5054438;28;19913;-96
2023/01/04 05:08:36;;;;;;;;;;;;;;;1.54;77.81;100787.25;5058712;28;19919;-96
2023/01/04 05:11:08;;;;;;;;;;;;;;;1.56;77.84;100792.50;5063948;28;19920;-95
2023/01/04 05:13:37;;;;;;;;;;;;;;;1.71;77.25;100784.41;5060555;28;19917;-96
2023/01/04 05:16:07;;;;;;;;;;;;;;;1.72;76.40;100788.81;5061903;28;19913;-96
2023/01/04 05:18:33;;;;;;;;;;;;;;;1.50;76.52;100794.88;5060786;28;19956;-95
2023/01/04 05:21:01;;;;;;;;;;;;;;;1.47;76.56;100794.75;5061285;28;19913;-96
2023/01/04 05:23:26;;;;;;;;;;;;;;;1.47;76.76;100793.06;5066071;28;19919;-93
2023/01/04 05:25:54;;;;;;;;;;;;;;;1.30;76.87;100800.19;5070608;28;19901;-95
2023/01/04 05:28:30;;;;;;;;;;;;;;;1.41;77.07;100798.00;5073758;28;19935;-93
2023/01/04 05:30:56;;;;;;;;;;;;;;;0.57;79.95;100798.88;5076342;28;19987;-92
2023/01/04 05:33:28;;;;;;;;;;;;;;;0.84;80.77;100811.28;5066854;28;20020;-94
2023/01/04 05:35:56;;;;;;;;;;;;;;;1.03;80.35;100798.22;5058732;28;19913;-95
2023/01/04 05:38:21;;;;;;;;;;;;;;;1.11;80.56;100811.53;5054475;28;19940;-94
2023/01/04 05:40:47;;;;;;;;;;;;;;;1.12;79.81;100815.91;5054276;28;19913;-96
2023/01/04 05:43:13;;;;;;;;;;;;;;;1.05;79.77;100830.38;5054827;28;19913;-96
2023/01/04 05:45:39;;;;;;;;;;;;;;;0.88;79.98;100826.16;5054923;28;19913;-95
2023/01/04 05:48:05;;;;;;;;;;;;;;;1.01;80.46;100830.19;5053490;28;19951;-94
2023/01/04 05:50:30;;;;;;;;;;;;;;;0.86;80.72;100833.00;5053546;28;19913;-94
2023/01/04 05:52:55;;;;;;;;;;;;;;;1.12;80.23;100826.31;5052849;28;19913;-95
2023/01/04 05:55:21;;;;;;;;;;;;;;;1.12;79.87;100831.50;5035215;28;20389;-96
2023/01/04 05:57:46;;;;;;;;;;;;;;;0.98;79.61;100830.94;5051965;28;19920;-96
2023/01/04 06:00:12;;;;;;;;;;;;;;;0.79;80.31;100818.88;5035485;28;19917;-96
2023/01/04 06:02:37;;;;;;;;;;;;;;;0.76;81.34;100826.56;5052043;28;20007;-95
2023/01/04 06:05:04;;;;;;;;;;;;;;;1.02;80.95;100837.13;5052682;28;20318;-95
2023/01/04 06:07:29;;;;;;;;;;;;;;;1.28;80.52;100832.13;5053095;28;19912;-95
2023/01/04 06:09:54;;;;;;;;;;;;;;;1.12;80.05;100821.09;5042851;28;20389;-96
2023/01/04 06:12:20;;;;;;;;;;;;;;;1.30;80.46;100822.69;5054831;28;19976;-94
2023/01/04 06:14:45;;;;;;;;;;;;;;;1.54;79.15;100834.06;5052972;28;19956;-95
2023/01/04 06:17:11;;;;;;;;;;;;;;;1.48;78.75;100836.41;5057661;28;19913;-96
2023/01/04 06:19:36;;;;;;;;;;;;;;;1.56;78.66;100845.44;5058344;28;20294;-94
2023/01/04 06:22:02;;;;;;;;;;;;;;;1.48;78.80;100845.94;5055723;28;19935;-95
2023/01/04 06:24:27;;;;;;;;;;;;;;;1.53;78.66;100840.13;5057731;28;19909;-96
2023/01/04 06:26:54;;;;;;;;;;;;;;;1.65;78.38;100841.41;5060276;28;19913;-96
2023/01/04 06:29:19;;;;;;;;;;;;;;;1.68;78.48;100852.81;5058346;28;19920;-96
2023/01/04 06:31:44;;;;;;;;;;;;;;;1.73;78.89;100855.59;5059328;28;19913;-96
2023/01/04 06:34:11;;;;;;;;;;;;;;;1.84;78.57;100846.53;5060218;28;19913;-96
2023/01/04 06:36:36;;;;;;;;;;;;;;;1.98;78.51;100860.06;5060586;28;19913;-96
2023/01/04 06:39:02;;;;;;;;;;;;;;;1.98;78.27;100854.84;5057189;28;19920;-94
2023/01/04 06:41:27;;;;;;;;;;;;;;;2.00;77.48;100857.53;5056729;28;19920;-95
2023/01/04 06:43:52;;;;;;;;;;;;;;;2.13;76.75;100858.03;5056739;28;19913;-95
2023/01/04 06:46:18;;;;;;;;;;;;;;;2.14;76.67;100869.34;5056585;28;19912;-96
2023/01/04 06:48:43;;;;;;;;;;;;;;;2.03;77.44;100878.47;5054262;28;20012;-94
2023/01/04 06:51:08;;;;;;;;;;;;;;;2.20;77.32;100871.28;5055121;28;20007;-94
2023/01/04 06:53:34;;;;;;;;;;;;;;;2.12;77.46;100873.59;5054960;28;20027;-92
2023/01/04 06:55:59;;;;;;;;;;;;;;;2.37;77.39;100878.00;5055540;28;19996;-96
2023/01/04 06:58:25;;;;;;;;;;;;;;;2.30;77.69;100887.31;5055059;28;20359;-96
2023/01/04 07:00:51;;;;;;;;;;;;;;;2.51;76.52;100883.72;5054514;28;19912;-91
2023/01/04 07:03:21;;;;;;;;;;;;;;;2.47;77.33;100881.84;5060787;28;19940;-96
2023/01/04 07:05:46;;;;;;;;;;;;;;;2.53;77.10;100886.38;5055455;28;20329;-95
2023/01/04 07:08:14;;;;;;;;;;;;;;;2.57;76.93;100890.88;5055179;28;19970;-96
2023/01/04 07:10:39;;;;;;;;;;;;;;;2.75;77.29;100885.44;5055764;28;19913;-95
2023/01/04 07:13:27;;;;;;;;;;;;;;;2.86;77.61;100879.78;5062152;28;19924;-96
2023/01/04 07:16:37;;;;;;;;;;;;;;;3.32;77.52;100876.97;5060268;28;19963;-96
2023/01/04 07:22:15;;;;;;;;;;;;;;;3.60;75.72;100868.34;5197492;22;19921;-96
2023/01/04 07:31:01;;;;;;;;;;;;;;;3.78;75.93;100875.84;5037857;28;19921;-96
2023/01/04 07:33:50;;;;;;;;;;;;;;;3.72;76.73;100880.88;5036150;28;19972;-96
2023/01/04 07:36:42;;;;;;;;;;;;;;;3.84;76.88;100878.66;5039003;28;19993;-96
2023/01/04 07:42:57;;;;;;;;;;;;;;;4.20;75.83;100884.94;5047662;28;19944;-96
2023/01/04 07:45:23;;;;;;;;;;;;;;;4.32;75.96;100887.06;5028091;28;19921;-96
2023/01/04 07:47:48;;;;;;;;;;;;;;;4.52;74.97;100888.50;5056514;28;19917;-96
2023/01/04 07:50:15;;;;;;;;;;;;;;;5.00;73.81;100884.59;5054646;28;19921;-96
2023/01/04 07:52:40;;;;;;;;;;;;;;;5.10;73.34;100889.22;5055057;28;19920;-96
2023/01/04 07:55:06;;;;;;;;;;;;;;;5.04;73.74;100878.59;5055433;28;20294;-96
2023/01/04 07:57:31;;;;;;;;;;;;;;;4.95;74.00;100878.38;5056945;28;19913;-96
2023/01/04 07:59:58;;;;;;;;;;;;;;;5.16;74.62;100875.44;5053353;28;19922;-95
2023/01/04 08:02:23;;;;;;;;;;;;;;;5.06;75.77;100881.25;5053536;28;19913;-95
2023/01/04 08:05:17;;;;;;;;;;;;;;;5.56;74.52;100884.25;5058749;28;19912;-96
2023/01/04 08:08:02;;;;;;;;;;;;;;;5.70;74.09;100892.44;5255071;22;19928;-96
2023/01/04 08:10:31;;;;;;;;;;;;;;;5.75;74.16;100896.09;5059847;28;19916;-96
2023/01/04 08:12:59;;;;;;;;;;;;;;;6.11;73.33;100892.56;5053890;28;19959;-94
2023/01/04 08:20:34;;;;;;;;;;;;;;;6.38;72.71;100897.53;5461231;22;19943;-95
2023/01/04 08:23:00;;;;;;;;;;;;;;;6.44;72.90;100902.91;5060216;28;20349;-95
2023/01/04 08:25:26;;;;;;;;;;;;;;;6.51;72.40;100901.28;5054525;28;19934;-95
2023/01/04 08:27:52;;;;;;;;;;;;;;;6.27;72.44;100902.53;5052691;28;19968;-93
2023/01/04 08:30:18;;;;;;;;;;;;;;;6.10;73.08;100901.25;5053166;28;19963;-94
2023/01/04 08:32:43;;;;;;;;;;;;;;;6.03;73.72;100902.00;5055099;28;19917;-96
2023/01/04 08:35:10;;;;;;;;;;;;;;;6.30;73.69;100900.84;5058011;28;19913;-95
2023/01/04 08:37:40;;;;;;;;;;;;;;;6.37;73.60;100898.38;5058380;28;19935;-96
2023/01/04 08:40:09;;;;;;;;;;;;;;;6.30;74.12;100888.59;5059011;28;19912;-95
2023/01/04 08:42:40;;;;;;;;;;;;;;;6.45;74.68;100886.31;5063190;28;19936;-96
2023/01/04 08:45:05;;;;;;;;;;;;;;;6.74;74.15;100883.41;5064941;28;19901;-95
2023/01/04 08:47:32;;;;;;;;;;;;;;;6.81;75.00;100887.00;5055048;28;20062;-93
2023/01/04 08:49:58;;;;;;;;;;;;;;;6.54;75.23;100882.13;5055781;28;19912;-96
2023/01/04 08:52:24;;;;;;;;;;;;;;;6.61;76.14;100886.63;5057961;28;19928;-95
2023/01/04 08:55:05;;;;;;;;;;;;;;;6.77;76.13;100874.72;5070472;28;20397;-96
2023/01/04 08:57:30;;;;;;;;;;;;;;;7.17;74.65;100873.72;5063236;28;19919;-96
2023/01/04 08:59:55;;;;;;;;;;;;;;;7.37;73.71;100867.03;5073117;28;19944;-94
2023/01/04 09:02:25;;;;;;;;;;;;;;;7.56;73.05;100866.47;5066403;28;19916;-96
2023/01/04 09:04:50;;;;;;;;;;;;;;;7.59;73.16;100866.53;5054230;28;19913;-91
2023/01/04 09:07:16;;;;;;;;;;;;;;;7.74;73.41;100857.09;5053947;28;19919;-96
2023/01/04 09:09:42;;;;;;;;;;;;;;;7.81;72.78;100857.22;5052972;28;19935;-96
2023/01/04 09:12:07;;;;;;;;;;;;;;;7.91;71.79;100857.34;5037352;28;19917;-95
2023/01/04 09:14:34;;;;;;;;;;;;;;;8.07;72.18;100854.97;5056980;28;20264;-95
2023/01/04 09:16:59;;;;;;;;;;;;;;;8.00;71.89;100850.50;5053185;28;19913;-94
2023/01/04 09:19:24;;;;;;;;;;;;;;;7.82;73.17;100839.75;5051738;28;19913;-95
2023/01/04 09:21:50;;;;;;;;;;;;;;;7.70;74.02;100840.44;5051641;28;20305;-94
2023/01/04 09:24:15;;;;;;;;;;;;;;;7.47;76.03;100840.06;5052847;28;19913;-93
2023/01/04 09:26:40;;;;;;;;;;;;;;;7.89;75.69;100836.31;5051690;28;20024;-94
2023/01/04 09:29:05;;;;;;;;;;;;;;;8.37;74.11;100835.22;5051451;28;19920;-95
2023/01/04 09:31:31;;;;;;;;;;;;;;;8.77;72.85;100838.34;5051672;28;19913;-94
2023/01/04 09:33:56;;;;;;;;;;;;;;;8.94;72.94;100820.09;5052373;28;19913;-95
2023/01/04 09:36:23;;;;;;;;;;;;;;;9.00;71.57;100824.50;5051852;28;20432;-95
2023/01/04 09:38:48;;;;;;;;;;;;;;;9.07;71.95;100822.84;5052262;28;19912;-93
2023/01/04 09:41:19;;;;;;;;;;;;;;;9.24;72.15;100821.22;5051828;28;20385;-95
2023/01/04 09:43:49;;;;;;;;;;;;;;;9.41;71.28;100815.22;5052748;28;19913;-95
2023/01/04 09:46:20;;;;;;;;;;;;;;;9.52;70.99;100804.75;5051985;28;19913;-94
2023/01/04 09:48:47;;;;;;;;;;;;;;;9.54;70.77;100809.16;5053208;28;19919;-90
2023/01/04 09:51:43;;;;;;;;;;;;;;;9.53;71.21;100812.69;5063306;28;19928;-96
2023/01/04 09:54:22;;;;;;;;;;;;;;;9.92;70.52;100807.66;5117151;22;19928;-96
2023/01/04 09:56:57;;;;;;;;;;;;;;;9.86;70.58;100800.59;5071594;28;19960;-96
2023/01/04 09:59:29;;;;;;;;;;;;;;;9.90;71.35;100797.09;5065699;28;19916;-95
2023/01/04 10:02:19;;;;;;;;;;;;;;;10.36;70.52;100793.78;5078470;28;19924;-96
2023/01/04 10:04:51;;;;;;;;;;;;;;;10.34;69.84;100787.66;5102702;22;19921;-96
2023/01/04 10:07:35;;;;;;;;;;;;;;;10.44;69.77;100792.09;5071497;28;19982;-96
2023/01/04 10:10:01;;;;;;;;;;;;;;;10.84;68.82;100788.63;5060386;28;19917;-95
2023/01/04 10:12:36;;;;;;;;;;;;;;;10.93;68.16;100791.28;5056663;28;19928;-94
2023/01/04 10:15:09;;;;;;;;;;;;;;;11.27;67.65;100786.00;5054943;28;20317;-95
2023/01/04 10:17:50;;;;;;;;;;;;;;;11.39;67.12;100779.84;5056489;28;20370;-94
2023/01/04 10:25:55;;;;;;;;;;;;;;;11.78;67.17;100776.22;5238741;22;19980;-94
2023/01/04 10:28:40;;;;;;;;;;;;;;;11.81;67.17;100778.00;5061167;28;19917;-96
2023/01/04 10:31:16;;;;;;;;;;;;;;;12.13;66.32;100771.75;5057538;28;20257;-95
2023/01/04 10:33:45;;;;;;;;;;;;;;;12.16;66.15;100767.31;5056108;28;20357;-94
2023/01/04 10:36:22;;;;;;;;;;;;;;;12.11;66.04;100768.22;5055632;28;20398;-95
2023/01/04 10:38:57;;;;;;;;;;;;;;;12.30;65.58;100764.63;5057275;28;19999;-93
2023/01/04 10:41:25;;;;;;;;;;;;;;;12.53;65.51;100766.28;5056096;28;19908;-93
2023/01/04 10:44:00;;;;;;;;;;;;;;;12.51;64.96;100766.28;5055177;28;19920;-94
2023/01/04 10:46:29;;;;;;;;;;;;;;;12.67;65.13;100766.19;5055943;28;19908;-95
2023/01/04 10:48:58;;;;;;;;;;;;;;;12.78;65.31;100760.81;5056249;28;20366;-95
2023/01/04 10:51:30;;;;;;;;;;;;;;;12.93;64.91;100758.06;5056351;28;20000;-95
2023/01/04 10:53:59;;;;;;;;;;;;;;;12.93;65.10;100754.50;5055322;28;19912;-95
2023/01/04 10:56:42;;;;;;;;;;;;;;;13.09;64.14;100742.91;5057063;28;19913;-95
2023/01/04 10:59:12;;;;;;;;;;;;;;;13.04;65.17;100742.94;5056197;28;19977;-96
2023/01/04 11:01:41;;;;;;;;;;;;;;;13.16;64.63;100743.72;5057049;28;19920;-94
2023/01/04 11:04:18;;;;;;;;;;;;;;;13.02;64.50;100734.16;5055590;28;19920;-95
2023/01/04 11:06:49;;;;;;;;;;;;;;;13.22;63.77;100728.66;5054834;28;19917;-94
2023/01/04 11:09:20;;;;;;;;;;;;;;;13.50;63.31;100723.13;5055412;28;19912;-95
2023/01/04 11:11:49;;;;;;;;;;;;;;;13.67;63.10;100722.94;5054493;28;19948;-96
2023/01/04 11:14:15;;;;;;;;;;;;;;;13.66;62.59;100731.78;5042298;28;19916;-93
2023/01/04 11:16:45;;;;;;;;;;;;;;;13.61;63.56;100730.97;5059509;28;19913;-95
2023/01/04 11:19:11;;;;;;;;;;;;;;;13.79;62.08;100738.72;5055125;28;19944;-94
2023/01/04 11:21:40;;;;;;;;;;;;;;;13.68;63.06;100731.75;5054236;28;19913;-94
2023/01/04 11:24:06;;;;;;;;;;;;;;;13.69;62.22;100721.13;5055301;28;19948;-91
2023/01/04 11:26:33;;;;;;;;;;;;;;;13.78;62.14;100722.81;5056910;28;19923;-91
2023/01/04 11:29:02;;;;;;;;;;;;;;;13.87;61.68;100708.53;5058127;28;19944;-93
2023/01/04 11:31:43;;;;;;;;;;;;;;;13.89;61.84;100715.59;5055472;28;20356;-93
2023/01/04 11:34:08;;;;;;;;;;;;;;;14.14;61.03;100715.28;5058350;28;19920;-92
2023/01/04 11:36:38;;;;;;;;;;;;;;;13.93;61.42;100724.38;5055397;28;19913;-94
2023/01/04 11:39:05;;;;;;;;;;;;;;;14.18;60.71;100722.31;5056166;28;19917;-91
2023/01/04 11:41:30;;;;;;;;;;;;;;;14.32;60.93;100720.34;5056270;28;19999;-92
2023/01/04 11:43:58;;;;;;;;;;;;;;;14.15;60.81;100720.56;5057784;28;19944;-96
2023/01/04 11:46:24;;;;;;;;;;;;;;;14.43;60.31;100712.22;5060050;28;20011;-94
2023/01/04 11:48:50;;;;;;;;;;;;;;;14.12;59.98;100715.31;5055536;28;19939;-95
2023/01/04 11:51:15;;;;;;;;;;;;;;;14.32;59.89;100716.81;5067239;28;19913;-96
2023/01/04 11:53:41;;;;;;;;;;;;;;;14.43;59.53;100706.91;5058947;28;20413;-91
2023/01/04 12:01:48;;;;;;;;;;;;;;;14.74;58.82;100713.56;5435308;22;20397;-96
2023/01/04 12:04:37;;;;;;;;;;;;;;;14.83;57.02;100714.28;5109864;22;19989;-96
2023/01/04 12:07:35;;;;;;;;;;;;;;;14.85;54.66;100716.91;5024238;28;19963;-94
2023/01/04 12:10:20;;;;;;;;;;;;;;;14.92;54.06;100717.69;5021453;28;20055;-96
2023/01/04 12:15:28;;;;;;;;;;;;;;;14.97;53.55;100718.50;5231391;22;19921;-96
2023/01/04 12:18:21;;;;;;;;;;;;;;;15.02;52.99;100712.19;5035730;28;19916;-95
2023/01/04 12:20:52;;;;;;;;;;;;;;;15.17;52.77;100711.06;5146432;22;19933;-96
2023/01/04 12:23:56;;;;;;;;;;;;;;;15.18;52.82;100709.25;5418516;22;19916;-96
2023/01/04 12:32:22;;;;;;;;;;;;;;;15.14;53.35;100700.47;5293691;22;19909;-96
2023/01/04 12:44:25;;;;;;;;;;;;;;;15.20;52.96;100700.38;5214817;22;19931;-96
2023/01/04 12:50:10;;;;;;;;;;;;;;;15.19;55.27;100703.91;5041126;28;19916;-95
2023/01/04 12:52:51;;;;;;;;;;;;;;;15.42;54.43;100701.75;5056084;28;19939;-95
2023/01/04 12:57:52;;;;;;;;;;;;;;;15.07;52.94;100700.63;5815485;22;19928;-96
2023/01/04 13:00:19;;;;;;;;;;;;;;;15.18;53.30;100709.25;5021887;28;19918;-96
2023/01/04 13:02:52;;;;;;;;;;;;;;;15.22;52.98;100705.66;5006303;28;19932;-96
2023/01/04 13:25:02;;;;;;;;;;;;;;;15.28;52.94;100717.97;6117075;22;20292;-96
2023/01/04 13:32:47;;;;;;;;;;;;;;;15.17;52.54;100710.19;5338593;22;19920;-96
2023/01/04 13:35:13;;;;;;;;;;;;;;;15.46;53.92;100708.75;5058199;28;19931;-95
2023/01/04 13:37:54;;;;;;;;;;;;;;;15.29;51.69;100719.69;5041072;28;20196;-96
2023/01/04 13:40:27;;;;;;;;;;;;;;;15.24;53.05;100717.13;5052350;28;19912;-96
2023/01/04 13:42:52;;;;;;;;;;;;;;;15.43;52.80;100711.47;5057536;28;19939;-92
2023/01/04 13:45:36;;;;;;;;;;;;;;;15.31;54.83;100717.91;5056606;28;19919;-96
2023/01/04 13:48:04;;;;;;;;;;;;;;;15.34;54.94;100715.19;5055479;28;19913;-94
2023/01/04 13:50:42;;;;;;;;;;;;;;;15.29;55.02;100711.72;5052720;28;19912;-95
2023/01/04 13:53:34;;;;;;;;;;;;;;;15.01;56.11;100712.22;5054861;28;20301;-95
2023/01/04 13:56:02;;;;;;;;;;;;;;;14.77;56.61;100703.75;5055110;28;19913;-95
2023/01/04 13:58:38;;;;;;;;;;;;;;;14.65;56.90;100709.28;5057395;28;19912;-96
2023/01/04 14:01:13;;;;;;;;;;;;;;;14.70;56.68;100714.50;5041394;28;19920;-94
2023/01/04 14:03:40;;;;;;;;;;;;;;;14.60;57.31;100721.72;5053415;28;20339;-96
2023/01/04 14:06:08;;;;;;;;;;;;;;;14.65;57.38;100717.22;5056880;28;20415;-95
2023/01/04 14:08:39;;;;;;;;;;;;;;;14.77;56.49;100727.66;5052417;28;19967;-94
2023/01/04 14:14:32;;;;;;;;;;;;;;;14.85;56.37;100711.59;5063464;28;19958;-96
2023/01/04 14:17:18;;;;;;;;;;;;;;;14.73;56.03;100712.66;5061634;28;19920;-96
2023/01/04 14:19:56;;;;;;;;;;;;;;;14.42;57.11;100707.78;5064494;28;19913;-95
2023/01/04 14:22:22;;;;;;;;;;;;;;;14.41;57.68;100706.06;5054931;28;19912;-95
2023/01/04 14:24:47;;;;;;;;;;;;;;;14.39;57.31;100718.47;5054229;28;19916;-93
2023/01/04 14:27:32;;;;;;;;;;;;;;;14.54;57.09;100720.03;5054355;28;19984;-93
2023/01/04 14:29:58;;;;;;;;;;;;;;;14.10;58.18;100732.13;5052590;28;19916;-93
2023/01/04 14:32:23;;;;;;;;;;;;;;;13.79;58.63;100733.41;5051748;28;20027;-92
2023/01/04 14:34:49;;;;;;;;;;;;;;;13.71;59.34;100727.28;5051157;28;20385;-93
2023/01/04 14:37:14;;;;;;;;;;;;;;;13.42;60.09;100739.09;5050918;28;20252;-93
2023/01/04 14:39:40;;;;;;;;;;;;;;;13.47;60.40;100744.34;5056372;28;19919;-91
2023/01/04 14:42:22;;;;;;;;;;;;;;;13.37;60.38;100740.91;5056698;28;20359;-92
2023/01/04 14:44:50;;;;;;;;;;;;;;;13.33;61.69;100741.84;5062127;28;19980;-95
2023/01/04 14:47:16;;;;;;;;;;;;;;;13.04;62.02;100742.94;5061628;28;19948;-93
2023/01/04 14:49:42;;;;;;;;;;;;;;;12.95;62.17;100743.03;5065931;28;19913;-93
2023/01/04 14:52:18;;;;;;;;;;;;;;;13.23;61.15;100745.44;5061457;28;19912;-91
2023/01/04 14:54:44;;;;;;;;;;;;;;;13.07;61.76;100752.66;5053691;28;19913;-91
2023/01/04 15:06:18;;;;;;;;;;;;;;;12.66;62.22;100753.81;5056327;28;19923;-96
2023/01/04 15:08:43;;;;;;;;;;;;;;;12.61;62.13;100761.78;5054834;28;19913;-95
2023/01/04 15:11:13;;;;;;;;;;;;;;;12.49;62.62;100765.38;5055445;28;19908;-96
2023/01/04 15:13:39;;;;;;;;;;;;;;;12.44;62.51;100764.53;5055638;28;19917;-96
2023/01/04 15:16:12;;;;;;;;;;;;;;;12.31;63.18;100765.47;5065686;28;19916;-96
2023/01/04 15:18:41;;;;;;;;;;;;;;;12.42;63.25;100762.78;5062630;28;19917;-96
2023/01/04 15:21:08;;;;;;;;;;;;;;;12.14;63.84;100763.81;5043943;28;20015;-94
2023/01/04 15:23:44;;;;;;;;;;;;;;;12.14;63.49;100769.13;5070609;28;19923;-96
2023/01/04 15:26:16;;;;;;;;;;;;;;;12.16;63.87;100772.63;5071994;28;19915;-96